createdAt,value
2016-06-26T00:00:17.878Z,66.82
2016-06-26T00:01:17.848Z,66.62
2016-06-26T00:02:17.871Z,66.62
2016-06-26T00:03:17.800Z,67.4
2016-06-26T00:04:17.798Z,66.62
2016-06-26T00:05:17.771Z,66.33
2016-06-26T00:06:17.764Z,66.24
2016-06-26T00:07:17.744Z,66.82
2016-06-26T00:08:17.735Z,66.72
2016-06-26T00:09:17.714Z,66.91
2016-06-26T00:10:17.697Z,66.91
2016-06-26T00:11:17.673Z,66.24
2016-06-26T00:12:17.674Z,66.72
2016-06-26T00:13:17.651Z,66.24
2016-06-26T00:14:17.642Z,66.62
2016-06-26T00:15:17.627Z,67.2
2016-06-26T00:16:17.615Z,66.91
2016-06-26T00:17:17.583Z,66.04
2016-06-26T00:18:17.587Z,66.43
2016-06-26T00:19:17.562Z,67
2016-06-26T00:20:17.586Z,66.82
2016-06-26T00:21:17.528Z,66.91
2016-06-26T00:22:17.536Z,66.62
2016-06-26T00:23:17.503Z,66.24
2016-06-26T00:24:17.494Z,65.27
2016-06-26T00:25:17.484Z,66.33
2016-06-26T00:26:17.456Z,66.62
2016-06-26T00:27:17.444Z,67
2016-06-26T00:28:17.430Z,65.95
2016-06-26T00:29:17.405Z,65.85
2016-06-26T00:30:17.431Z,66.82
2016-06-26T00:31:17.374Z,66.24
2016-06-26T00:32:17.358Z,65.37
2016-06-26T00:33:17.357Z,66.52
2016-06-26T00:34:17.351Z,67
2016-06-26T00:35:17.318Z,66.62
2016-06-26T00:36:17.318Z,65.47
2016-06-26T00:37:17.287Z,66.04
2016-06-26T00:38:17.283Z,66.14
2016-06-26T00:39:17.255Z,66.14
2016-06-26T00:40:17.248Z,65.75
2016-06-26T00:41:17.232Z,66.14
2016-06-26T00:42:17.216Z,66.04
2016-06-26T00:43:17.205Z,65.95
2016-06-26T00:44:17.190Z,66.04
2016-06-26T00:45:17.177Z,66.33
2016-06-26T00:46:16.556Z,65.85
2016-06-26T00:47:17.173Z,65.56
2016-06-26T00:48:17.139Z,65.75
2016-06-26T00:49:17.108Z,65.85
2016-06-26T00:50:17.102Z,65.66
2016-06-26T00:51:17.086Z,65.53
2016-06-26T00:52:17.066Z,65.56
2016-06-26T00:53:17.088Z,66.43
2016-06-26T00:54:17.032Z,66.24
2016-06-26T00:55:17.030Z,66.14
2016-06-26T00:56:17.012Z,65.91
2016-06-26T00:57:16.989Z,65.63
2016-06-26T00:58:17.003Z,65.47
2016-06-26T00:59:16.959Z,66.11
2016-06-26T01:00:16.956Z,66.2
2016-06-26T01:01:16.937Z,65.53
2016-06-26T01:02:16.940Z,65.43
2016-06-26T01:03:16.897Z,66.11
2016-06-26T01:04:16.884Z,66.2
2016-06-26T01:05:16.866Z,65.53
2016-06-26T01:06:16.264Z,65.81
2016-06-26T01:07:16.945Z,65.53
2016-06-26T01:08:16.821Z,65.33
2016-06-26T01:09:16.858Z,65.24
2016-06-26T01:10:16.797Z,65.81
2016-06-26T01:11:16.774Z,65.72
2016-06-26T01:12:16.763Z,66.2
2016-06-26T01:13:16.756Z,65.33
2016-06-26T01:14:16.736Z,65.91
2016-06-26T01:15:16.917Z,65.81
2016-06-26T01:16:16.713Z,65.53
2016-06-26T01:17:16.691Z,65.05
2016-06-26T01:18:16.679Z,64.86
2016-06-26T01:19:16.654Z,65.33
2016-06-26T01:20:16.658Z,65.14
2016-06-26T01:21:16.651Z,64.86
2016-06-26T01:22:16.610Z,65.14
2016-06-26T01:23:16.949Z,65.14
2016-06-26T01:24:16.576Z,65.24
2016-06-26T01:25:16.584Z,64.86
2016-06-26T01:26:16.555Z,65.24
2016-06-26T01:27:16.534Z,64.66
2016-06-26T01:28:16.515Z,64.79
2016-06-26T01:29:16.505Z,65.17
2016-06-26T01:30:16.490Z,64.18
2016-06-26T01:31:16.987Z,64.86
2016-06-26T01:32:16.474Z,64.56
2016-06-26T01:33:16.446Z,64.37
2016-06-26T01:34:16.434Z,64.95
2016-06-26T01:35:16.419Z,65.05
2016-06-26T01:36:16.400Z,64.95
2016-06-26T01:37:16.382Z,64.37
2016-06-26T01:38:16.367Z,64.28
2016-06-26T01:39:16.955Z,64.47
2016-06-26T01:40:16.342Z,63.98
2016-06-26T01:41:16.317Z,63.41
2016-06-26T01:42:16.306Z,63.82
2016-06-26T01:43:16.294Z,63.98
2016-06-26T01:44:15.671Z,63.41
2016-06-26T01:45:16.269Z,63.5
2016-06-26T01:46:16.246Z,64.47
2016-06-26T01:47:16.231Z,64.47
2016-06-26T01:48:16.225Z,64.37
2016-06-26T01:49:16.206Z,63.44
2016-06-26T01:50:16.188Z,63.06
2016-06-26T01:51:16.177Z,62.7
2016-06-26T01:52:16.155Z,63.57
2016-06-26T01:53:16.139Z,63.47
2016-06-26T01:54:16.144Z,64.43
2016-06-26T01:55:16.263Z,64.28
2016-06-26T01:56:16.090Z,64.28
2016-06-26T01:57:16.091Z,64.47
2016-06-26T01:58:16.083Z,64.76
2016-06-26T01:59:16.041Z,64.76
2016-06-26T02:00:16.031Z,64.95
2016-06-26T02:01:16.016Z,64.76
2016-06-26T02:02:16.006Z,65.34
2016-06-26T02:03:15.391Z,65.53
2016-06-26T02:04:15.970Z,65.34
2016-06-26T02:05:15.955Z,65.05
2016-06-26T02:06:15.938Z,65.14
2016-06-26T02:07:15.323Z,65.24
2016-06-26T02:08:15.914Z,65.63
2016-06-26T02:09:15.898Z,65.34
2016-06-26T02:10:15.890Z,65.14
2016-06-26T02:11:16.262Z,65.53
2016-06-26T02:12:15.859Z,65.53
2016-06-26T02:13:15.838Z,65.72
2016-06-26T02:14:15.834Z,66.3
2016-06-26T02:15:15.817Z,66.2
2016-06-26T02:16:15.787Z,66.2
2016-06-26T02:17:15.790Z,66.3
2016-06-26T02:18:15.759Z,66.3
2016-06-26T02:19:16.307Z,66.3
2016-06-26T02:20:15.725Z,66.11
2016-06-26T02:21:15.715Z,66.01
2016-06-26T02:22:15.702Z,66.01
2016-06-26T02:23:15.678Z,66.3
2016-06-26T02:24:15.671Z,66.49
2016-06-26T02:25:15.673Z,66.3
2016-06-26T02:26:15.754Z,66.4
2016-06-26T02:27:15.636Z,66.97
2016-06-26T02:28:15.611Z,66.97
2016-06-26T02:29:15.612Z,66.59
2016-06-26T02:30:15.591Z,66.59
2016-06-26T02:31:15.567Z,66.69
2016-06-26T02:32:15.554Z,66.69
2016-06-26T02:33:15.539Z,66.69
2016-06-26T02:34:15.783Z,66.59
2016-06-26T02:35:15.518Z,66.78
2016-06-26T02:36:15.494Z,66.59
2016-06-26T02:37:15.474Z,66.72
2016-06-26T02:38:15.466Z,66.59
2016-06-26T02:39:15.440Z,67.17
2016-06-26T02:40:15.439Z,66.59
2016-06-26T02:41:15.459Z,66.82
2016-06-26T02:42:15.762Z,66.72
2016-06-26T02:43:15.411Z,66.97
2016-06-26T02:44:15.382Z,66.59
2016-06-26T02:45:15.362Z,66.4
2016-06-26T02:46:15.355Z,66.43
2016-06-26T02:47:15.331Z,66.91
2016-06-26T02:48:15.327Z,67.01
2016-06-26T02:49:15.308Z,66.91
2016-06-26T02:50:15.799Z,67.2
2016-06-26T02:51:15.298Z,66.91
2016-06-26T02:52:15.268Z,66.91
2016-06-26T02:53:15.251Z,67.3
2016-06-26T02:54:15.246Z,67.4
2016-06-26T02:55:14.615Z,67.3
2016-06-26T02:56:15.200Z,67.01
2016-06-26T02:57:15.186Z,67.49
2016-06-26T02:58:15.777Z,67.4
2016-06-26T02:59:15.157Z,67.2
2016-06-26T03:00:15.139Z,67.4
2016-06-26T03:01:15.127Z,67.01
2016-06-26T03:02:15.119Z,67.2
2016-06-26T03:03:15.100Z,67.2
2016-06-26T03:04:15.083Z,67.49
2016-06-26T03:05:15.069Z,67.49
2016-06-26T03:06:15.059Z,66.91
2016-06-26T03:07:15.042Z,67.3
2016-06-26T03:08:15.037Z,67.59
2016-06-26T03:09:15.014Z,67.2
2016-06-26T03:10:14.993Z,67.2
2016-06-26T03:11:14.984Z,67.49
2016-06-26T03:12:14.965Z,67.3
2016-06-26T03:13:14.948Z,67.11
2016-06-26T03:14:15.095Z,67.2
2016-06-26T03:15:14.956Z,67.11
2016-06-26T03:16:14.915Z,67.01
2016-06-26T03:17:14.898Z,67.78
2016-06-26T03:18:14.888Z,67.2
2016-06-26T03:19:14.865Z,67.2
2016-06-26T03:20:14.853Z,67.2
2016-06-26T03:21:14.834Z,67.2
2016-06-26T03:22:15.867Z,67.2
2016-06-26T03:23:14.802Z,67.4
2016-06-26T03:24:14.191Z,67.01
2016-06-26T03:25:14.787Z,67.3
2016-06-26T03:26:14.757Z,66.91
2016-06-26T03:27:14.756Z,67.4
2016-06-26T03:28:14.743Z,67.01
2016-06-26T03:29:14.713Z,67.49
2016-06-26T03:30:15.907Z,67.49
2016-06-26T03:31:14.689Z,67.49
2016-06-26T03:32:14.695Z,67.3
2016-06-26T03:33:14.659Z,67.11
2016-06-26T03:34:14.648Z,67.2
2016-06-26T03:35:14.638Z,67.01
2016-06-26T03:36:14.613Z,67.3
2016-06-26T03:37:14.624Z,67.01
2016-06-26T03:38:15.091Z,66.82
2016-06-26T03:39:14.583Z,67.3
2016-06-26T03:40:13.959Z,67.11
2016-06-26T03:41:14.561Z,66.72
2016-06-26T03:42:14.549Z,67.3
2016-06-26T03:43:14.539Z,66.91
2016-06-26T03:44:14.495Z,66.82
2016-06-26T03:45:14.491Z,66.72
2016-06-26T03:46:14.483Z,67.2
2016-06-26T03:47:14.459Z,66.53
2016-06-26T03:48:14.452Z,67.11
2016-06-26T03:49:14.427Z,66.63
2016-06-26T03:50:14.426Z,66.53
2016-06-26T03:51:14.394Z,66.72
2016-06-26T03:52:14.380Z,66.53
2016-06-26T03:53:14.371Z,66.63
2016-06-26T03:54:14.353Z,66.82
2016-06-26T03:55:14.343Z,66.82
2016-06-26T03:56:14.336Z,66.82
2016-06-26T03:57:14.313Z,66.82
2016-06-26T03:58:14.301Z,66.72
2016-06-26T03:59:14.277Z,66.63
2016-06-26T04:00:14.278Z,66.53
2016-06-26T04:01:14.252Z,66.53
2016-06-26T04:02:14.247Z,66.82
2016-06-26T04:03:14.245Z,66.91
2016-06-26T04:04:14.223Z,66.63
2016-06-26T04:05:14.208Z,66.63
2016-06-26T04:06:14.181Z,66.72
2016-06-26T04:07:14.165Z,66.82
2016-06-26T04:08:14.146Z,66.82
2016-06-26T04:09:14.136Z,66.91
2016-06-26T04:10:14.139Z,66.53
2016-06-26T04:11:14.104Z,66.72
2016-06-26T04:12:14.101Z,66.91
2016-06-26T04:13:14.077Z,66.91
2016-06-26T04:14:14.065Z,66.91
2016-06-26T04:15:14.053Z,66.72
2016-06-26T04:16:14.049Z,66.82
2016-06-26T04:17:14.027Z,66.91
2016-06-26T04:18:14.020Z,66.91
2016-06-26T04:19:13.991Z,66.91
2016-06-26T04:20:13.986Z,66.72
2016-06-26T04:21:13.962Z,66.72
2016-06-26T04:22:13.958Z,67.01
2016-06-26T04:23:13.940Z,66.63
2016-06-26T04:24:13.920Z,66.82
2016-06-26T04:25:13.912Z,66.63
2016-06-26T04:26:13.908Z,67.01
2016-06-26T04:27:13.874Z,66.72
2016-06-26T04:28:13.879Z,66.43
2016-06-26T04:29:13.850Z,66.63
2016-06-26T04:30:13.849Z,66.63
2016-06-26T04:31:13.839Z,66.72
2016-06-26T04:32:13.838Z,66.72
2016-06-26T04:33:13.785Z,66.63
2016-06-26T04:34:13.779Z,66.82
2016-06-26T04:35:13.775Z,66.72
2016-06-26T04:36:13.757Z,66.72
2016-06-26T04:37:13.731Z,66.63
2016-06-26T04:38:13.713Z,66.63
2016-06-26T04:39:13.710Z,66.63
2016-06-26T04:40:13.690Z,66.72
2016-06-26T04:41:13.687Z,66.82
2016-06-26T04:42:13.670Z,66.91
2016-06-26T04:43:13.660Z,66.91
2016-06-26T04:44:13.642Z,66.91
2016-06-26T04:45:13.617Z,66.91
2016-06-26T04:46:13.605Z,66.63
2016-06-26T04:47:13.596Z,66.63
2016-06-26T04:48:13.576Z,66.63
2016-06-26T04:49:13.557Z,66.82
2016-06-26T04:50:13.538Z,66.63
2016-06-26T04:51:13.539Z,67.01
2016-06-26T04:52:13.525Z,66.53
2016-06-26T04:53:13.503Z,66.63
2016-06-26T04:54:13.492Z,66.63
2016-06-26T04:55:13.473Z,66.82
2016-06-26T04:56:13.457Z,66.72
2016-06-26T04:57:13.438Z,66.72
2016-06-26T04:58:13.421Z,66.53
2016-06-26T04:59:13.409Z,66.53
2016-06-26T05:00:13.392Z,66.72
2016-06-26T05:01:13.384Z,67.01
2016-06-26T05:02:13.372Z,66.72
2016-06-26T05:03:12.757Z,66.72
2016-06-26T05:04:13.342Z,66.63
2016-06-26T05:05:13.329Z,66.63
2016-06-26T05:06:13.305Z,66.72
2016-06-26T05:07:13.295Z,66.63
2016-06-26T05:08:13.279Z,66.72
2016-06-26T05:09:13.275Z,66.72
2016-06-26T05:10:13.252Z,66.63
2016-06-26T05:11:13.238Z,66.63
2016-06-26T05:12:13.224Z,66.63
2016-06-26T05:13:13.207Z,66.72
2016-06-26T05:14:13.346Z,66.72
2016-06-26T05:15:13.186Z,66.63
2016-06-26T05:16:13.163Z,66.63
2016-06-26T05:17:13.154Z,67.01
2016-06-26T05:18:13.137Z,66.63
2016-06-26T05:19:13.129Z,66.63
2016-06-26T05:20:13.106Z,66.72
2016-06-26T05:21:13.121Z,66.63
2016-06-26T05:22:13.181Z,66.53
2016-06-26T05:23:13.066Z,66.91
2016-06-26T05:24:13.055Z,66.43
2016-06-26T05:25:13.046Z,66.72
2016-06-26T05:26:13.033Z,66.82
2016-06-26T05:27:13.010Z,66.72
2016-06-26T05:28:13.005Z,66.72
2016-06-26T05:29:12.985Z,66.63
2016-06-26T05:30:13.231Z,66.63
2016-06-26T05:31:12.942Z,66.63
2016-06-26T05:32:12.931Z,66.91
2016-06-26T05:33:12.921Z,66.72
2016-06-26T05:34:12.906Z,66.91
2016-06-26T05:35:12.902Z,67.01
2016-06-26T05:36:12.886Z,66.82
2016-06-26T05:37:12.857Z,66.72
2016-06-26T05:38:13.168Z,66.63
2016-06-26T05:39:12.824Z,66.82
2016-06-26T05:40:12.815Z,66.63
2016-06-26T05:41:12.830Z,66.53
2016-06-26T05:42:12.786Z,66.91
2016-06-26T05:43:12.778Z,66.53
2016-06-26T05:44:12.756Z,66.63
2016-06-26T05:45:12.749Z,66.72
2016-06-26T05:46:13.233Z,66.72
2016-06-26T05:47:12.714Z,66.82
2016-06-26T05:48:12.119Z,66.63
2016-06-26T05:49:12.086Z,66.82
2016-06-26T05:50:12.673Z,66.63
2016-06-26T05:51:12.657Z,66.72
2016-06-26T05:52:12.044Z,66.91
2016-06-26T05:53:12.631Z,66.63
2016-06-26T05:54:13.214Z,66.72
2016-06-26T05:55:12.623Z,66.82
2016-06-26T05:56:12.581Z,66.72
2016-06-26T05:57:12.576Z,66.72
2016-06-26T05:58:12.547Z,66.72
2016-06-26T05:59:12.556Z,66.63
2016-06-26T06:00:12.533Z,66.53
2016-06-26T06:01:12.508Z,66.53
2016-06-26T06:02:12.499Z,66.72
2016-06-26T06:03:12.476Z,66.63
2016-06-26T06:04:12.464Z,67.2
2016-06-26T06:05:12.459Z,67.2
2016-06-26T06:06:12.443Z,67.11
2016-06-26T06:07:12.436Z,67.3
2016-06-26T06:08:12.409Z,66.91
2016-06-26T06:09:12.410Z,66.63
2016-06-26T06:10:12.491Z,66.63
2016-06-26T06:11:12.363Z,66.82
2016-06-26T06:12:12.356Z,67.4
2016-06-26T06:13:12.338Z,67.01
2016-06-26T06:14:12.339Z,67.3
2016-06-26T06:15:12.309Z,67.3
2016-06-26T06:16:12.298Z,67.49
2016-06-26T06:17:12.277Z,67.2
2016-06-26T06:18:12.452Z,67.4
2016-06-26T06:19:12.246Z,67.4
2016-06-26T06:20:12.237Z,67.3
2016-06-26T06:21:12.229Z,67.3
2016-06-26T06:22:12.215Z,67.11
2016-06-26T06:23:12.198Z,67.2
2016-06-26T06:24:12.172Z,67.11
2016-06-26T06:25:12.159Z,67.2
2016-06-26T06:26:12.497Z,67.2
2016-06-26T06:27:12.141Z,67.3
2016-06-26T06:28:12.114Z,67.49
2016-06-26T06:29:12.111Z,67.11
2016-06-26T06:30:12.091Z,67.01
2016-06-26T06:31:12.083Z,67.2
2016-06-26T06:32:12.072Z,67.2
2016-06-26T06:33:12.058Z,67.2
2016-06-26T06:34:13.389Z,67.2
2016-06-26T06:35:12.025Z,67.4
2016-06-26T06:36:12.015Z,67.01
2016-06-26T06:37:11.997Z,67.3
2016-06-26T06:38:11.977Z,67.2
2016-06-26T06:39:11.966Z,67.01
2016-06-26T06:40:11.948Z,66.91
2016-06-26T06:41:11.976Z,66.72
2016-06-26T06:42:11.910Z,67.49
2016-06-26T06:43:11.900Z,67.3
2016-06-26T06:44:11.883Z,66.91
2016-06-26T06:45:11.882Z,67.11
2016-06-26T06:46:11.854Z,67.3
2016-06-26T06:47:11.845Z,67.3
2016-06-26T06:48:11.835Z,67.3
2016-06-26T06:49:12.063Z,67.4
2016-06-26T06:50:11.803Z,67.3
2016-06-26T06:51:11.784Z,67.11
2016-06-26T06:52:11.775Z,67.3
2016-06-26T06:53:11.771Z,67.3
2016-06-26T06:54:11.744Z,67.4
2016-06-26T06:55:11.721Z,67.3
2016-06-26T06:56:11.710Z,67.2
2016-06-26T06:57:12.017Z,67.01
2016-06-26T06:58:11.686Z,67.2
2016-06-26T06:59:11.677Z,67.11
2016-06-26T07:00:11.657Z,67.2
2016-06-26T07:01:11.639Z,67.11
2016-06-26T07:02:11.633Z,67.2
2016-06-26T07:03:11.641Z,67.2
2016-06-26T07:04:11.613Z,67.2
2016-06-26T07:05:11.993Z,67.2
2016-06-26T07:06:11.567Z,66.91
2016-06-26T07:07:11.550Z,67.3
2016-06-26T07:08:11.548Z,67.2
2016-06-26T07:09:11.533Z,66.91
2016-06-26T07:10:11.513Z,67.2
2016-06-26T07:11:11.526Z,67.3
2016-06-26T07:12:11.475Z,67.2
2016-06-26T07:13:12.029Z,67.11
2016-06-26T07:14:11.464Z,67.2
2016-06-26T07:15:11.439Z,67.2
2016-06-26T07:16:11.417Z,67.11
2016-06-26T07:17:11.417Z,67.4
2016-06-26T07:18:11.391Z,67.2
2016-06-26T07:19:11.378Z,67.2
2016-06-26T07:20:11.371Z,67.49
2016-06-26T07:21:12.056Z,67.2
2016-06-26T07:22:10.745Z,67.3
2016-06-26T07:23:11.325Z,67.3
2016-06-26T07:24:11.307Z,67.49
2016-06-26T07:25:11.297Z,67.2
2016-06-26T07:26:11.274Z,67.01
2016-06-26T07:27:11.284Z,67.11
2016-06-26T07:28:11.258Z,67.49
2016-06-26T07:29:11.345Z,67.49
2016-06-26T07:30:11.246Z,67.49
2016-06-26T07:31:11.201Z,67.59
2016-06-26T07:32:11.192Z,67.78
2016-06-26T07:33:11.183Z,67.55
2016-06-26T07:34:11.183Z,67.85
2016-06-26T07:35:11.156Z,67.4
2016-06-26T07:36:11.125Z,67.49
2016-06-26T07:37:11.326Z,67.36
2016-06-26T07:38:11.114Z,67.2
2016-06-26T07:39:11.098Z,67.59
2016-06-26T07:40:11.079Z,67.2
2016-06-26T07:41:11.062Z,66.91
2016-06-26T07:42:11.057Z,66.82
2016-06-26T07:43:11.043Z,67.4
2016-06-26T07:44:11.030Z,66.63
2016-06-26T07:45:12.103Z,66.91
2016-06-26T07:46:10.991Z,67.11
2016-06-26T07:47:10.974Z,66.63
2016-06-26T07:48:10.961Z,66.53
2016-06-26T07:49:10.984Z,66.24
2016-06-26T07:50:10.966Z,66.72
2016-06-26T07:51:10.939Z,66.05
2016-06-26T07:52:10.901Z,66.24
2016-06-26T07:53:10.889Z,66.53
2016-06-26T07:54:10.871Z,66.4
2016-06-26T07:55:10.858Z,66.11
2016-06-26T07:56:11.067Z,65.82
2016-06-26T07:57:10.841Z,66.05
2016-06-26T07:58:10.816Z,66.33
2016-06-26T07:59:10.796Z,66.3
2016-06-26T08:00:10.801Z,65.63
2016-06-26T08:01:10.773Z,65.47
2016-06-26T08:02:10.763Z,65.72
2016-06-26T08:03:10.753Z,65.95
2016-06-26T08:04:10.747Z,65.43
2016-06-26T08:05:10.770Z,65.75
2016-06-26T08:06:10.732Z,65.27
2016-06-26T08:07:10.684Z,65.08
2016-06-26T08:08:10.670Z,65.82
2016-06-26T08:09:10.658Z,65.24
2016-06-26T08:10:10.642Z,65.85
2016-06-26T08:11:10.633Z,65.14
2016-06-26T08:12:10.623Z,65.82
2016-06-26T08:13:10.593Z,64.95
2016-06-26T08:14:10.582Z,65.34
2016-06-26T08:15:10.571Z,64.98
2016-06-26T08:16:09.959Z,65.63
2016-06-26T08:17:10.534Z,65.05
2016-06-26T08:18:10.519Z,65.24
2016-06-26T08:19:10.514Z,64.86
2016-06-26T08:20:10.504Z,65.14
2016-06-26T08:21:10.482Z,65.43
2016-06-26T08:22:10.456Z,65.34
2016-06-26T08:23:10.447Z,65.17
2016-06-26T08:24:10.443Z,64.76
2016-06-26T08:25:10.425Z,64.56
2016-06-26T08:26:10.405Z,64.76
2016-06-26T08:27:10.391Z,64.76
2016-06-26T08:28:10.382Z,64.76
2016-06-26T08:29:10.366Z,64.66
2016-06-26T08:30:10.361Z,64.98
2016-06-26T08:31:10.356Z,64.95
2016-06-26T08:32:10.319Z,64.56
2016-06-26T08:33:10.376Z,64.56
2016-06-26T08:34:10.304Z,64.47
2016-06-26T08:35:10.274Z,64.56
2016-06-26T08:36:10.258Z,64.47
2016-06-26T08:37:10.275Z,64.47
2016-06-26T08:38:10.231Z,64.28
2016-06-26T08:39:10.242Z,64.37
2016-06-26T08:40:10.197Z,64.56
2016-06-26T08:41:10.331Z,64.18
2016-06-26T08:42:10.186Z,64.47
2016-06-26T08:43:10.159Z,64.37
2016-06-26T08:44:10.182Z,64.56
2016-06-26T08:45:10.142Z,64.28
2016-06-26T08:46:10.117Z,64.47
2016-06-26T08:47:10.094Z,63.89
2016-06-26T08:48:10.094Z,63.4
2016-06-26T08:49:10.380Z,64.28
2016-06-26T08:50:10.050Z,64.56
2016-06-26T08:51:10.048Z,64.47
2016-06-26T08:52:10.029Z,64.47
2016-06-26T08:53:10.025Z,63.21
2016-06-26T08:54:10.012Z,59.25
2016-06-26T08:55:09.978Z,59.06
2016-06-26T08:56:09.968Z,57.52
2016-06-26T08:57:10.351Z,57.04
2016-06-26T08:58:09.940Z,56.33
2016-06-26T08:59:09.922Z,56.72
2016-06-26T09:00:09.914Z,55.94
2016-06-26T09:01:09.899Z,56.04
2016-06-26T09:02:09.887Z,55.56
2016-06-26T09:03:09.862Z,57.59
2016-06-26T09:04:09.858Z,56.14
2016-06-26T09:05:10.384Z,55.27
2016-06-26T09:06:09.823Z,56.14
2016-06-26T09:07:09.803Z,56.04
2016-06-26T09:08:09.825Z,56.04
2016-06-26T09:09:09.777Z,55.85
2016-06-26T09:10:09.784Z,55.66
2016-06-26T09:11:09.764Z,55.18
2016-06-26T09:12:09.734Z,56.14
2016-06-26T09:13:10.365Z,55.36
2016-06-26T09:14:09.724Z,55.08
2016-06-26T09:15:09.686Z,55.76
2016-06-26T09:16:09.679Z,54.88
2016-06-26T09:17:09.656Z,54.18
2016-06-26T09:18:09.651Z,54.09
2016-06-26T09:19:09.634Z,53.8
2016-06-26T09:20:09.610Z,53.61
2016-06-26T09:21:09.654Z,53.61
2016-06-26T09:22:09.590Z,53.13
2016-06-26T09:23:09.567Z,53.41
2016-06-26T09:24:09.549Z,53.8
2016-06-26T09:25:09.545Z,53.31
2016-06-26T09:26:09.531Z,53.61
2016-06-26T09:27:09.509Z,53.31
2016-06-26T09:28:09.493Z,53.7
2016-06-26T09:29:09.682Z,53.31
2016-06-26T09:30:09.471Z,53.51
2016-06-26T09:31:09.455Z,53.31
2016-06-26T09:32:09.434Z,52.55
2016-06-26T09:33:09.435Z,52.73
2016-06-26T09:34:09.405Z,52.64
2016-06-26T09:35:09.394Z,53.22
2016-06-26T09:36:09.368Z,52.64
2016-06-26T09:37:09.660Z,52.55
2016-06-26T09:38:09.345Z,52.55
2016-06-26T09:39:09.327Z,52.64
2016-06-26T09:40:09.313Z,53.22
2016-06-26T09:41:09.304Z,54.57
2016-06-26T09:42:09.290Z,58.45
2016-06-26T09:43:09.271Z,58.36
2016-06-26T09:44:09.364Z,58.45
2016-06-26T09:45:08.642Z,58.07
2016-06-26T09:46:09.241Z,58.07
2016-06-26T09:47:09.200Z,58.07
2016-06-26T09:48:09.208Z,58.94
2016-06-26T09:49:09.182Z,55.56
2016-06-26T09:50:09.167Z,55.76
2016-06-26T09:51:09.160Z,55.27
2016-06-26T09:52:09.183Z,55.15
2016-06-26T09:53:09.117Z,55.24
2016-06-26T09:54:09.099Z,55.54
2016-06-26T09:55:09.118Z,55.34
2016-06-26T09:56:09.071Z,55.05
2016-06-26T09:57:09.061Z,55.05
2016-06-26T09:58:09.040Z,54.76
2016-06-26T09:59:09.031Z,54.54
2016-06-26T10:00:09.356Z,54.44
2016-06-26T10:01:09.000Z,54.54
2016-06-26T10:02:08.381Z,54.54
2016-06-26T10:03:08.968Z,54.25
2016-06-26T10:04:08.960Z,54.25
2016-06-26T10:05:08.942Z,54.16
2016-06-26T10:06:08.918Z,54.44
2016-06-26T10:07:08.915Z,54.54
2016-06-26T10:08:09.185Z,54.25
2016-06-26T10:09:08.870Z,54.35
2016-06-26T10:10:08.867Z,54.44
2016-06-26T10:11:08.864Z,54.54
2016-06-26T10:12:08.836Z,54.44
2016-06-26T10:13:08.827Z,54.44
2016-06-26T10:14:08.798Z,54.35
2016-06-26T10:15:08.788Z,54.54
2016-06-26T10:16:09.217Z,54.16
2016-06-26T10:17:08.750Z,54.44
2016-06-26T10:18:08.763Z,54.74
2016-06-26T10:19:08.728Z,55.02
2016-06-26T10:20:08.827Z,54.54
2016-06-26T10:21:08.127Z,54.44
2016-06-26T10:22:08.683Z,54.64
2016-06-26T10:23:08.669Z,55.02
2016-06-26T10:24:09.195Z,55.41
2016-06-26T10:25:08.642Z,55.31
2016-06-26T10:26:08.022Z,55.79
2016-06-26T10:27:08.598Z,55.51
2016-06-26T10:28:07.970Z,55.7
2016-06-26T10:29:08.589Z,55.02
2016-06-26T10:30:08.558Z,55
2016-06-26T10:31:08.542Z,55.29
2016-06-26T10:32:08.658Z,55.96
2016-06-26T10:33:08.506Z,55.57
2016-06-26T10:34:08.491Z,55.16
2016-06-26T10:35:08.482Z,55.67
2016-06-26T10:36:08.459Z,55.29
2016-06-26T10:37:08.439Z,54.71
2016-06-26T10:38:08.423Z,54.25
2016-06-26T10:39:08.411Z,54.06
2016-06-26T10:40:09.352Z,54.44
2016-06-26T10:41:08.403Z,54.66
2016-06-26T10:42:08.381Z,54.28
2016-06-26T10:43:08.358Z,54.57
2016-06-26T10:44:08.342Z,53.8
2016-06-26T10:45:08.318Z,54.57
2016-06-26T10:46:08.307Z,53.89
2016-06-26T10:47:08.339Z,53.41
2016-06-26T10:48:08.769Z,53.61
2016-06-26T10:49:08.259Z,53.8
2016-06-26T10:50:08.270Z,54.57
2016-06-26T10:51:08.230Z,54.66
2016-06-26T10:52:08.208Z,54.76
2016-06-26T10:53:08.193Z,55.24
2016-06-26T10:54:08.184Z,55.44
2016-06-26T10:55:08.175Z,55.46
2016-06-26T10:56:09.353Z,54.98
2016-06-26T10:57:08.129Z,54.69
2016-06-26T10:58:08.116Z,54.69
2016-06-26T10:59:08.102Z,54.5
2016-06-26T11:00:08.086Z,54.31
2016-06-26T11:01:08.070Z,54.4
2016-06-26T11:02:08.062Z,54.6
2016-06-26T11:03:08.046Z,54.98
2016-06-26T11:04:09.371Z,55.27
2016-06-26T11:05:08.033Z,55.56
2016-06-26T11:06:07.995Z,54.98
2016-06-26T11:07:07.983Z,55.36
2016-06-26T11:08:07.965Z,55.85
2016-06-26T11:09:07.988Z,55.76
2016-06-26T11:10:07.959Z,55.85
2016-06-26T11:11:07.915Z,55.76
2016-06-26T11:12:07.906Z,56.43
2016-06-26T11:13:07.889Z,56.43
2016-06-26T11:14:07.902Z,56.91
2016-06-26T11:15:07.851Z,56.33
2016-06-26T11:16:07.240Z,56.62
2016-06-26T11:17:07.821Z,56.43
2016-06-26T11:18:07.821Z,56.52
2016-06-26T11:19:07.802Z,56.62
2016-06-26T11:20:07.806Z,56.74
2016-06-26T11:21:07.764Z,56.94
2016-06-26T11:22:07.749Z,56.56
2016-06-26T11:23:07.736Z,57.01
2016-06-26T11:24:07.722Z,56.94
2016-06-26T11:25:07.725Z,56.36
2016-06-26T11:26:07.090Z,56.84
2016-06-26T11:27:07.081Z,56.56
2016-06-26T11:28:07.650Z,56.36
2016-06-26T11:29:07.652Z,55.01
2016-06-26T11:30:07.640Z,54.79
2016-06-26T11:31:07.624Z,54.21
2016-06-26T11:32:07.597Z,54.6
2016-06-26T11:33:07.583Z,55.08
2016-06-26T11:34:07.575Z,54.79
2016-06-26T11:35:07.555Z,53.63
2016-06-26T11:36:07.539Z,53.63
2016-06-26T11:37:07.525Z,54.02
2016-06-26T11:38:07.507Z,54.31
2016-06-26T11:39:07.498Z,53.63
2016-06-26T11:40:07.482Z,53.44
2016-06-26T11:41:07.474Z,53.63
2016-06-26T11:42:07.469Z,53.92
2016-06-26T11:43:07.440Z,53.53
2016-06-26T11:44:07.422Z,53.63
2016-06-26T11:45:07.400Z,52.95
2016-06-26T11:46:07.394Z,53.03
2016-06-26T11:47:07.364Z,52.93
2016-06-26T11:48:07.369Z,53.44
2016-06-26T11:49:07.363Z,53.05
2016-06-26T11:50:07.373Z,51.99
2016-06-26T11:51:07.310Z,52.09
2016-06-26T11:52:06.695Z,52.86
2016-06-26T11:53:07.281Z,51.8
2016-06-26T11:54:07.274Z,53.03
2016-06-26T11:55:07.266Z,52.76
2016-06-26T11:56:07.264Z,53.05
2016-06-26T11:57:07.219Z,51.82
2016-06-26T11:58:07.207Z,51.92
2016-06-26T11:59:07.188Z,52.69
2016-06-26T12:00:07.181Z,51.05
2016-06-26T12:01:07.160Z,51.25
2016-06-26T12:02:07.145Z,51.92
2016-06-26T12:03:07.130Z,52.21
2016-06-26T12:04:07.109Z,51.44
2016-06-26T12:05:07.106Z,51.51
2016-06-26T12:06:07.125Z,51.73
2016-06-26T12:07:07.080Z,51.05
2016-06-26T12:08:07.076Z,50.76
2016-06-26T12:09:07.047Z,50.57
2016-06-26T12:10:07.031Z,50.67
2016-06-26T12:11:07.009Z,50.76
2016-06-26T12:12:06.985Z,50.38
2016-06-26T12:13:06.983Z,50.86
2016-06-26T12:14:06.986Z,50.76
2016-06-26T12:15:06.967Z,50.47
2016-06-26T12:16:06.932Z,51.15
2016-06-26T12:17:06.934Z,51.44
2016-06-26T12:18:06.947Z,50.96
2016-06-26T12:19:06.884Z,50.38
2016-06-26T12:20:06.887Z,50.86
2016-06-26T12:21:06.858Z,51.05
2016-06-26T12:22:06.860Z,50.57
2016-06-26T12:23:06.847Z,50.67
2016-06-26T12:24:06.824Z,50.76
2016-06-26T12:25:06.807Z,51.15
2016-06-26T12:26:06.779Z,51.34
2016-06-26T12:27:06.176Z,50.86
2016-06-26T12:28:06.763Z,51.05
2016-06-26T12:29:06.752Z,51.25
2016-06-26T12:30:06.722Z,52.11
2016-06-26T12:31:06.717Z,51.25
2016-06-26T12:32:06.754Z,51.05
2016-06-26T12:33:06.683Z,50.67
2016-06-26T12:34:06.662Z,50.93
2016-06-26T12:35:06.652Z,50.93
2016-06-26T12:36:06.638Z,50.45
2016-06-26T12:37:06.634Z,50.84
2016-06-26T12:38:06.614Z,50.57
2016-06-26T12:39:06.586Z,50.86
2016-06-26T12:40:06.591Z,51.53
2016-06-26T12:41:06.562Z,50.57
2016-06-26T12:42:05.945Z,50.57
2016-06-26T12:43:06.526Z,50.5
2016-06-26T12:44:06.538Z,50.59
2016-06-26T12:45:06.513Z,50.21
2016-06-26T12:46:06.518Z,50.31
2016-06-26T12:47:06.480Z,49.53
2016-06-26T12:48:06.477Z,49.73
2016-06-26T12:49:06.442Z,50.11
2016-06-26T12:50:05.846Z,50.21
2016-06-26T12:51:06.414Z,50.21
2016-06-26T12:52:06.411Z,50.69
2016-06-26T12:53:06.383Z,50.11
2016-06-26T12:54:06.386Z,50.21
2016-06-26T12:55:06.360Z,49.92
2016-06-26T12:56:06.346Z,50.89